sensor_id;sensor_type;location;lat;lon;timestamp;pressure;altitude;pressure_sealevel;temperature;humidity
69411;BME280;56604;48.652;9.194;2023-04-24T00:00:03;95271.84;;;9.90;84.14
69411;BME280;56604;48.652;9.194;2023-04-24T00:02:31;95276.31;;;9.95;83.87
69411;BME280;56604;48.652;9.194;2023-04-24T00:04:57;95276.31;;;9.84;84.46
69411;BME280;56604;48.652;9.194;2023-04-24T00:07:27;95284.25;;;9.79;85.03
69411;BME280;56604;48.652;9.194;2023-04-24T00:09:52;95282.66;;;9.78;84.79
69411;BME280;56604;48.652;9.194;2023-04-24T00:12:18;95278.94;;;9.89;84.76
69411;BME280;56604;48.652;9.194;2023-04-24T00:14:43;95274.22;;;9.97;84.16
69411;BME280;56604;48.652;9.194;2023-04-24T00:17:08;95289.44;;;9.95;84.44
69411;BME280;56604;48.652;9.194;2023-04-24T00:19:34;95288.91;;;9.93;83.95
69411;BME280;56604;48.652;9.194;2023-04-24T00:21:59;95285.25;;;9.94;84.04
69411;BME280;56604;48.652;9.194;2023-04-24T00:24:24;95297.28;;;10.00;83.83
69411;BME280;56604;48.652;9.194;2023-04-24T00:26:50;95296.53;;;9.94;83.98
69411;BME280;56604;48.652;9.194;2023-04-24T00:29:15;95295.69;;;10.04;83.43
69411;BME280;56604;48.652;9.194;2023-04-24T00:31:40;95287.03;;;10.08;83.78
69411;BME280;56604;48.652;9.194;2023-04-24T00:34:06;95280.44;;;10.11;83.65
69411;BME280;56604;48.652;9.194;2023-04-24T00:36:31;95289.13;;;10.06;83.59
69411;BME280;56604;48.652;9.194;2023-04-24T00:38:57;95286.78;;;10.05;83.98
69411;BME280;56604;48.652;9.194;2023-04-24T00:41:24;95287.03;;;10.08;82.70
69411;BME280;56604;48.652;9.194;2023-04-24T00:43:49;95275.75;;;9.98;83.29
69411;BME280;56604;48.652;9.194;2023-04-24T00:46:16;95285.97;;;10.04;83.21
69411;BME280;56604;48.652;9.194;2023-04-24T00:48:42;95283.34;;;10.04;81.93
69411;BME280;56604;48.652;9.194;2023-04-24T00:51:08;95284.09;;;10.10;82.93
69411;BME280;56604;48.652;9.194;2023-04-24T00:53:34;95275.69;;;10.13;82.69
69411;BME280;56604;48.652;9.194;2023-04-24T00:55:59;95278.31;;;10.13;81.96
69411;BME280;56604;48.652;9.194;2023-04-24T00:58:25;95274.41;;;10.10;82.05
69411;BME280;56604;48.652;9.194;2023-04-24T01:00:52;95268.88;;;10.17;81.10
69411;BME280;56604;48.652;9.194;2023-04-24T01:03:20;95265.16;;;10.18;81.04
69411;BME280;56604;48.652;9.194;2023-04-24T01:05:47;95265.16;;;10.23;80.76
69411;BME280;56604;48.652;9.194;2023-04-24T01:08:14;95263.31;;;10.24;81.29
69411;BME280;56604;48.652;9.194;2023-04-24T01:10:41;95265.94;;;10.29;80.88
69411;BME280;56604;48.652;9.194;2023-04-24T01:13:07;95270.94;;;10.25;81.54
69411;BME280;56604;48.652;9.194;2023-04-24T01:15:33;95258.34;;;10.17;80.91
69411;BME280;56604;48.652;9.194;2023-04-24T01:17:59;95252.28;;;10.27;80.82
69411;BME280;56604;48.652;9.194;2023-04-24T01:20:25;95255.72;;;10.22;81.29
69411;BME280;56604;48.652;9.194;2023-04-24T01:22:51;95251.50;;;10.21;82.03
69411;BME280;56604;48.652;9.194;2023-04-24T01:25:16;95250.19;;;10.19;82.19
69411;BME280;56604;48.652;9.194;2023-04-24T01:27:42;95252.31;;;10.17;81.13
69411;BME280;56604;48.652;9.194;2023-04-24T01:30:07;95249.41;;;10.18;81.25
69411;BME280;56604;48.652;9.194;2023-04-24T01:32:34;95244.69;;;10.15;81.07
69411;BME280;56604;48.652;9.194;2023-04-24T01:35:00;95242.31;;;10.19;80.19
69411;BME280;56604;48.652;9.194;2023-04-24T01:37:25;95241.53;;;10.18;80.91
69411;BME280;56604;48.652;9.194;2023-04-24T01:39:51;95238.41;;;10.16;80.69
69411;BME280;56604;48.652;9.194;2023-04-24T01:42:17;95239.75;;;10.13;80.42
69411;BME280;56604;48.652;9.194;2023-04-24T01:44:42;95235.53;;;10.12;80.35
69411;BME280;56604;48.652;9.194;2023-04-24T01:47:08;95236.56;;;10.17;80.50
69411;BME280;56604;48.652;9.194;2023-04-24T01:49:34;95243.72;;;10.01;81.36
69411;BME280;56604;48.652;9.194;2023-04-24T01:51:59;95241.66;;;9.93;81.74
69411;BME280;56604;48.652;9.194;2023-04-24T01:54:24;95244.56;;;9.91;82.25
69411;BME280;56604;48.652;9.194;2023-04-24T01:56:50;95247.94;;;9.97;82.23
69411;BME280;56604;48.652;9.194;2023-04-24T01:59:16;95255.00;;;10.01;82.04
69411;BME280;56604;48.652;9.194;2023-04-24T02:01:42;95247.88;;;10.07;82.84
69411;BME280;56604;48.652;9.194;2023-04-24T02:04:07;95246.31;;;10.06;82.40
69411;BME280;56604;48.652;9.194;2023-04-24T02:06:33;95247.94;;;9.97;83.17
69411;BME280;56604;48.652;9.194;2023-04-24T02:08:59;95251.28;;;10.12;83.16
69411;BME280;56604;48.652;9.194;2023-04-24T02:11:25;95252.09;;;10.08;83.49
69411;BME280;56604;48.652;9.194;2023-04-24T02:13:50;95250.03;;;10.05;84.64
69411;BME280;56604;48.652;9.194;2023-04-24T02:16:16;95240.00;;;10.07;84.63
69411;BME280;56604;48.652;9.194;2023-04-24T02:18:42;95252.13;;;9.98;85.57
69411;BME280;56604;48.652;9.194;2023-04-24T02:21:07;95249.50;;;9.98;85.50
69411;BME280;56604;48.652;9.194;2023-04-24T02:23:33;95250.06;;;9.89;84.74
69411;BME280;56604;48.652;9.194;2023-04-24T02:25:58;95237.25;;;9.78;85.93
69411;BME280;56604;48.652;9.194;2023-04-24T02:28:23;95240.94;;;9.82;86.04
69411;BME280;56604;48.652;9.194;2023-04-24T02:30:49;95240.16;;;9.76;86.08
69411;BME280;56604;48.652;9.194;2023-04-24T02:33:15;95245.97;;;9.68;86.05
69411;BME280;56604;48.652;9.194;2023-04-24T02:35:41;95241.25;;;9.65;86.45
69411;BME280;56604;48.652;9.194;2023-04-24T02:38:06;95245.97;;;9.68;87.52
69411;BME280;56604;48.652;9.194;2023-04-24T02:40:31;95241.25;;;9.65;87.35
69411;BME280;56604;48.652;9.194;2023-04-24T02:42:56;95245.69;;;9.64;87.91
69411;BME280;56604;48.652;9.194;2023-04-24T02:45:22;95245.44;;;9.61;87.26
69411;BME280;56604;48.652;9.194;2023-04-24T02:47:47;95244.38;;;9.67;87.19
69411;BME280;56604;48.652;9.194;2023-04-24T02:50:12;95246.97;;;9.72;86.94
69411;BME280;56604;48.652;9.194;2023-04-24T02:52:38;95250.41;;;9.67;87.31
69411;BME280;56604;48.652;9.194;2023-04-24T02:55:03;95237.56;;;9.66;88.12
69411;BME280;56604;48.652;9.194;2023-04-24T02:57:29;95245.44;;;9.61;87.58
69411;BME280;56604;48.652;9.194;2023-04-24T02:59:54;95245.16;;;9.67;88.16
69411;BME280;56604;48.652;9.194;2023-04-24T03:02:20;95244.91;;;9.69;87.68
69411;BME280;56604;48.652;9.194;2023-04-24T03:04:46;95251.22;;;9.68;87.86
69411;BME280;56604;48.652;9.194;2023-04-24T03:07:12;95241.50;;;9.63;88.59
69411;BME280;56604;48.652;9.194;2023-04-24T03:09:39;95240.72;;;9.68;88.71
69411;BME280;56604;48.652;9.194;2023-04-24T03:12:05;95237.56;;;9.66;89.12
69411;BME280;56604;48.652;9.194;2023-04-24T03:14:30;95238.59;;;9.70;89.41
69411;BME280;56604;48.652;9.194;2023-04-24T03:16:56;95237.03;;;9.69;89.15
69411;BME280;56604;48.652;9.194;2023-04-24T03:19:21;95230.22;;;9.68;90.55
69411;BME280;56604;48.652;9.194;2023-04-24T03:21:47;95216.31;;;9.62;90.27
69411;BME280;56604;48.652;9.194;2023-04-24T03:24:12;95223.91;;;9.64;89.70
69411;BME280;56604;48.652;9.194;2023-04-24T03:26:38;95224.97;;;9.63;89.90
69411;BME280;56604;48.652;9.194;2023-04-24T03:29:03;95221.09;;;9.45;91.17
69411;BME280;56604;48.652;9.194;2023-04-24T03:31:28;95219.25;;;9.40;90.67
69411;BME280;56604;48.652;9.194;2023-04-24T03:33:54;95226.34;;;9.40;91.45
69411;BME280;56604;48.652;9.194;2023-04-24T03:36:19;95227.91;;;9.36;92.09
69411;BME280;56604;48.652;9.194;2023-04-24T03:38:45;95227.91;;;9.36;92.15
69411;BME280;56604;48.652;9.194;2023-04-24T03:41:10;95227.13;;;9.35;91.48
69411;BME280;56604;48.652;9.194;2023-04-24T03:43:36;95221.38;;;9.33;91.90
69411;BME280;56604;48.652;9.194;2023-04-24T03:46:02;95225.34;;;9.31;91.71
69411;BME280;56604;48.652;9.194;2023-04-24T03:48:28;95227.69;;;9.32;91.41
69411;BME280;56604;48.652;9.194;2023-04-24T03:50:53;95213.53;;;9.28;92.46
69411;BME280;56604;48.652;9.194;2023-04-24T03:53:18;95218.53;;;9.09;92.73
69411;BME280;56604;48.652;9.194;2023-04-24T03:55:44;95219.84;;;9.07;92.76
69411;BME280;56604;48.652;9.194;2023-04-24T03:58:10;95219.06;;;8.96;93.10
69411;BME280;56604;48.652;9.194;2023-04-24T04:00:36;95216.97;;;8.88;93.86
69411;BME280;56604;48.652;9.194;2023-04-24T04:03:03;95223.28;;;8.92;94.18
69411;BME280;56604;48.652;9.194;2023-04-24T04:05:28;95230.88;;;8.83;93.82
69411;BME280;56604;48.652;9.194;2023-04-24T04:07:53;95232.44;;;8.84;93.86
69411;BME280;56604;48.652;9.194;2023-04-24T04:10:19;95245.03;;;8.77;93.99
69411;BME280;56604;48.652;9.194;2023-04-24T04:12:44;95244.75;;;8.78;93.36
69411;BME280;56604;48.652;9.194;2023-04-24T04:15:10;95249.22;;;8.78;93.45
69411;BME280;56604;48.652;9.194;2023-04-24T04:17:35;95243.47;;;8.91;93.14
69411;BME280;56604;48.652;9.194;2023-04-24T04:20:01;95249.22;;;9.09;92.88
69411;BME280;56604;48.652;9.194;2023-04-24T04:22:26;95249.75;;;9.06;92.20
69411;BME280;56604;48.652;9.194;2023-04-24T04:24:52;95242.38;;;9.08;92.27
69411;BME280;56604;48.652;9.194;2023-04-24T04:27:17;95248.69;;;9.07;92.90
69411;BME280;56604;48.652;9.194;2023-04-24T04:29:44;95265.97;;;9.13;91.57
69411;BME280;56604;48.652;9.194;2023-04-24T04:32:09;95262.56;;;9.07;92.07
69411;BME280;56604;48.652;9.194;2023-04-24T04:34:34;95266.75;;;9.18;91.87
69411;BME280;56604;48.652;9.194;2023-04-24T04:37:03;95273.56;;;9.30;92.14
69411;BME280;56604;48.652;9.194;2023-04-24T04:39:28;95272.25;;;9.37;92.03
69411;BME280;56604;48.652;9.194;2023-04-24T04:41:54;95278.56;;;9.31;92.14
69411;BME280;56604;48.652;9.194;2023-04-24T04:44:20;95284.84;;;9.40;91.41
69411;BME280;56604;48.652;9.194;2023-04-24T04:46:45;95312.63;;;9.46;91.78
69411;BME280;56604;48.652;9.194;2023-04-24T04:49:11;95333.38;;;9.38;92.24
69411;BME280;56604;48.652;9.194;2023-04-24T04:51:36;95320.00;;;9.19;88.74
69411;BME280;56604;48.652;9.194;2023-04-24T04:54:02;95328.63;;;8.99;87.82
69411;BME280;56604;48.652;9.194;2023-04-24T04:56:27;95332.81;;;8.74;88.43
69411;BME280;56604;48.652;9.194;2023-04-24T04:58:52;95316.81;;;8.71;87.67
69411;BME280;56604;48.652;9.194;2023-04-24T05:01:18;95330.94;;;8.60;89.17
69411;BME280;56604;48.652;9.194;2023-04-24T05:03:43;95328.34;;;8.70;88.77
69411;BME280;56604;48.652;9.194;2023-04-24T05:06:09;95329.34;;;8.59;89.62
69411;BME280;56604;48.652;9.194;2023-04-24T05:08:34;95344.03;;;8.65;88.64
69411;BME280;56604;48.652;9.194;2023-04-24T05:11:00;95341.97;;;8.67;89.36
69411;BME280;56604;48.652;9.194;2023-04-24T05:13:25;95354.00;;;8.68;88.73
69411;BME280;56604;48.652;9.194;2023-04-24T05:15:50;95351.91;;;8.60;89.20
69411;BME280;56604;48.652;9.194;2023-04-24T05:18:16;95355.56;;;8.59;89.69
69411;BME280;56604;48.652;9.194;2023-04-24T05:20:41;95360.00;;;8.53;89.44
69411;BME280;56604;48.652;9.194;2023-04-24T05:23:08;95357.38;;;8.58;90.54
69411;BME280;56604;48.652;9.194;2023-04-24T05:25:34;95362.88;;;8.56;89.89
69411;BME280;56604;48.652;9.194;2023-04-24T05:28:00;95368.69;;;8.64;90.28
69411;BME280;56604;48.652;9.194;2023-04-24T05:30:26;95373.41;;;8.67;90.24
69411;BME280;56604;48.652;9.194;2023-04-24T05:32:51;95379.94;;;8.64;90.21
69411;BME280;56604;48.652;9.194;2023-04-24T05:35:16;95385.97;;;8.70;90.61
69411;BME280;56604;48.652;9.194;2023-04-24T05:37:42;95389.63;;;8.64;89.33
69411;BME280;56604;48.652;9.194;2023-04-24T05:40:08;95392.81;;;8.71;89.77
69411;BME280;56604;48.652;9.194;2023-04-24T05:42:33;95395.44;;;8.71;89.89
69411;BME280;56604;48.652;9.194;2023-04-24T05:44:59;95404.88;;;8.77;89.59
69411;BME280;56604;48.652;9.194;2023-04-24T05:47:24;95400.19;;;8.94;89.64
69411;BME280;56604;48.652;9.194;2023-04-24T05:49:51;95411.72;;;8.98;89.15
69411;BME280;56604;48.652;9.194;2023-04-24T05:52:16;95403.84;;;8.93;89.29
69411;BME280;56604;48.652;9.194;2023-04-24T05:54:42;95407.00;;;8.95;88.37
69411;BME280;56604;48.652;9.194;2023-04-24T05:57:07;95404.41;;;9.00;89.00
69411;BME280;56604;48.652;9.194;2023-04-24T05:59:35;95419.34;;;9.10;88.35
69411;BME280;56604;48.652;9.194;2023-04-24T06:02:00;95416.50;;;9.22;87.94
69411;BME280;56604;48.652;9.194;2023-04-24T06:04:25;95417.03;;;9.29;85.98
69411;BME280;56604;48.652;9.194;2023-04-24T06:06:51;95417.03;;;9.24;86.85
69411;BME280;56604;48.652;9.194;2023-04-24T06:09:21;95417.59;;;9.36;86.16
69411;BME280;56604;48.652;9.194;2023-04-24T06:11:46;95414.44;;;9.55;86.61
69411;BME280;56604;48.652;9.194;2023-04-24T06:14:12;95411.25;;;9.78;85.82
69411;BME280;56604;48.652;9.194;2023-04-24T06:16:37;95414.16;;;9.82;84.24
69411;BME280;56604;48.652;9.194;2023-04-24T06:19:04;95410.69;;;10.22;84.05
69411;BME280;56604;48.652;9.194;2023-04-24T06:21:29;95417.00;;;10.01;82.80
69411;BME280;56604;48.652;9.194;2023-04-24T06:23:55;95412.56;;;9.96;82.51
69411;BME280;56604;48.652;9.194;2023-04-24T06:26:21;95408.50;;;10.50;83.10
69411;BME280;56604;48.652;9.194;2023-04-24T06:28:47;95394.00;;;12.39;77.96
69411;BME280;56604;48.652;9.194;2023-04-24T06:31:12;95391.59;;;13.42;70.98
69411;BME280;56604;48.652;9.194;2023-04-24T06:33:37;95393.84;;;14.83;66.25
69411;BME280;56604;48.652;9.194;2023-04-24T06:36:03;95394.13;;;15.68;65.39
69411;BME280;56604;48.652;9.194;2023-04-24T06:38:29;95387.34;;;17.39;59.24
69411;BME280;56604;48.652;9.194;2023-04-24T06:40:54;95385.59;;;17.43;59.84
69411;BME280;56604;48.652;9.194;2023-04-24T06:43:20;95393.56;;;17.87;59.24
69411;BME280;56604;48.652;9.194;2023-04-24T06:45:45;95391.25;;;16.58;60.71
69411;BME280;56604;48.652;9.194;2023-04-24T06:48:12;95409.84;;;15.96;60.54
69411;BME280;56604;48.652;9.194;2023-04-24T06:50:37;95403.28;;;16.25;61.43
69411;BME280;56604;48.652;9.194;2023-04-24T06:53:02;95399.63;;;16.43;60.56
69411;BME280;56604;48.652;9.194;2023-04-24T06:55:28;95408.72;;;17.08;60.72
69411;BME280;56604;48.652;9.194;2023-04-24T06:57:53;95417.53;;;15.75;61.37
69411;BME280;56604;48.652;9.194;2023-04-24T07:00:18;95403.28;;;17.22;56.66
69411;BME280;56604;48.652;9.194;2023-04-24T07:02:44;95419.03;;;15.31;60.94
69411;BME280;56604;48.652;9.194;2023-04-24T07:05:09;95405.09;;;15.84;61.39
69411;BME280;56604;48.652;9.194;2023-04-24T07:07:35;95409.09;;;15.14;61.99
69411;BME280;56604;48.652;9.194;2023-04-24T07:10:04;95404.06;;;13.88;62.99
69411;BME280;56604;48.652;9.194;2023-04-24T07:12:29;95407.34;;;13.47;64.42
69411;BME280;56604;48.652;9.194;2023-04-24T07:14:54;95409.44;;;13.83;66.12
69411;BME280;56604;48.652;9.194;2023-04-24T07:17:20;95427.03;;;12.98;68.35
69411;BME280;56604;48.652;9.194;2023-04-24T07:19:45;95418.31;;;12.79;68.80
69411;BME280;56604;48.652;9.194;2023-04-24T07:22:11;95421.00;;;12.74;69.85
69411;BME280;56604;48.652;9.194;2023-04-24T07:24:42;95442.56;;;12.33;71.67
69411;BME280;56604;48.652;9.194;2023-04-24T07:27:08;95443.84;;;12.59;71.56
69411;BME280;56604;48.652;9.194;2023-04-24T07:29:33;95460.72;;;12.05;72.96
69411;BME280;56604;48.652;9.194;2023-04-24T07:31:58;95459.84;;;10.97;76.63
69411;BME280;56604;48.652;9.194;2023-04-24T07:34:24;95469.41;;;10.72;77.94
69411;BME280;56604;48.652;9.194;2023-04-24T07:36:49;95461.50;;;10.83;77.46
69411;BME280;56604;48.652;9.194;2023-04-24T07:39:15;95460.56;;;11.13;76.61
69411;BME280;56604;48.652;9.194;2023-04-24T07:41:40;95467.75;;;12.15;74.95
69411;BME280;56604;48.652;9.194;2023-04-24T07:44:06;95457.25;;;14.01;70.27
69411;BME280;56604;48.652;9.194;2023-04-24T07:46:31;95461.25;;;15.14;65.61
69411;BME280;56604;48.652;9.194;2023-04-24T07:48:57;95465.00;;;15.85;61.57
69411;BME280;56604;48.652;9.194;2023-04-24T07:51:24;95468.06;;;15.79;59.58
69411;BME280;56604;48.652;9.194;2023-04-24T07:53:51;95459.78;;;16.96;59.13
69411;BME280;56604;48.652;9.194;2023-04-24T07:56:16;95478.16;;;15.99;56.91
69411;BME280;56604;48.652;9.194;2023-04-24T07:58:42;95469.13;;;16.85;56.88
69411;BME280;56604;48.652;9.194;2023-04-24T08:01:07;95478.06;;;16.04;55.71
69411;BME280;56604;48.652;9.194;2023-04-24T08:03:32;95481.38;;;16.10;56.82
69411;BME280;56604;48.652;9.194;2023-04-24T08:05:58;95483.41;;;15.18;57.79
69411;BME280;56604;48.652;9.194;2023-04-24T08:08:23;95487.63;;;14.17;60.32
69411;BME280;56604;48.652;9.194;2023-04-24T08:10:49;95485.19;;;14.67;57.21
69411;BME280;56604;48.652;9.194;2023-04-24T08:13:15;95492.00;;;14.08;58.83
69411;BME280;56604;48.652;9.194;2023-04-24T08:15:40;95491.22;;;13.56;59.13
69411;BME280;56604;48.652;9.194;2023-04-24T08:18:06;95497.66;;;12.58;61.42
69411;BME280;56604;48.652;9.194;2023-04-24T08:20:31;95507.84;;;12.65;60.52
69411;BME280;56604;48.652;9.194;2023-04-24T08:22:57;95506.38;;;12.30;62.60
69411;BME280;56604;48.652;9.194;2023-04-24T08:25:22;95507.75;;;11.83;62.19
69411;BME280;56604;48.652;9.194;2023-04-24T08:27:51;95520.41;;;11.86;63.16
69411;BME280;56604;48.652;9.194;2023-04-24T08:30:17;95530.47;;;11.74;64.93
69411;BME280;56604;48.652;9.194;2023-04-24T08:32:42;95525.84;;;11.55;64.80
69411;BME280;56604;48.652;9.194;2023-04-24T08:35:08;95519.03;;;11.49;64.88
69411;BME280;56604;48.652;9.194;2023-04-24T08:37:34;95522.41;;;11.60;65.13
69411;BME280;56604;48.652;9.194;2023-04-24T08:40:01;95522.28;;;11.36;65.16
69411;BME280;56604;48.652;9.194;2023-04-24T08:42:28;95526.19;;;11.88;65.34
69411;BME280;56604;48.652;9.194;2023-04-24T08:44:54;95527.06;;;12.12;62.01
69411;BME280;56604;48.652;9.194;2023-04-24T08:47:20;95517.53;;;12.99;61.60
69411;BME280;56604;48.652;9.194;2023-04-24T08:49:47;95518.28;;;14.18;58.37
69411;BME280;56604;48.652;9.194;2023-04-24T08:52:13;95505.56;;;14.34;55.56
69411;BME280;56604;48.652;9.194;2023-04-24T08:54:39;95512.16;;;14.04;55.79
69411;BME280;56604;48.652;9.194;2023-04-24T08:57:07;95517.09;;;14.57;55.54
69411;BME280;56604;48.652;9.194;2023-04-24T08:59:33;95520.38;;;14.81;54.99
69411;BME280;56604;48.652;9.194;2023-04-24T09:01:59;95516.03;;;13.92;54.33
69411;BME280;56604;48.652;9.194;2023-04-24T09:04:25;95511.75;;;13.40;55.77
69411;BME280;56604;48.652;9.194;2023-04-24T09:06:52;95519.69;;;13.59;53.80
69411;BME280;56604;48.652;9.194;2023-04-24T09:09:20;95520.97;;;14.46;53.00
69411;BME280;56604;48.652;9.194;2023-04-24T09:11:46;95517.03;;;14.76;50.87
69411;BME280;56604;48.652;9.194;2023-04-24T09:14:14;95524.19;;;15.30;50.52
69411;BME280;56604;48.652;9.194;2023-04-24T09:16:39;95521.94;;;16.64;48.56
69411;BME280;56604;48.652;9.194;2023-04-24T09:19:05;95518.25;;;16.42;47.22
69411;BME280;56604;48.652;9.194;2023-04-24T09:21:34;95529.63;;;16.43;46.45
69411;BME280;56604;48.652;9.194;2023-04-24T09:24:02;95547.75;;;16.50;45.99
69411;BME280;56604;48.652;9.194;2023-04-24T09:26:34;95527.28;;;15.60;44.96
69411;BME280;56604;48.652;9.194;2023-04-24T09:28:59;95546.72;;;14.59;46.66
69411;BME280;56604;48.652;9.194;2023-04-24T09:31:27;95544.69;;;14.70;47.30
69411;BME280;56604;48.652;9.194;2023-04-24T09:33:54;95529.47;;;15.30;46.75
69411;BME280;56604;48.652;9.194;2023-04-24T09:36:27;95542.03;;;15.39;46.82
69411;BME280;56604;48.652;9.194;2023-04-24T09:38:57;95538.69;;;15.97;46.56
69411;BME280;56604;48.652;9.194;2023-04-24T09:41:23;95532.94;;;15.17;45.64
69411;BME280;56604;48.652;9.194;2023-04-24T09:43:48;95537.03;;;14.54;46.96
69411;BME280;56604;48.652;9.194;2023-04-24T09:46:14;95542.94;;;14.13;48.60
69411;BME280;56604;48.652;9.194;2023-04-24T09:48:40;95550.41;;;13.92;47.50
69411;BME280;56604;48.652;9.194;2023-04-24T09:51:06;95554.28;;;14.14;46.24
69411;BME280;56604;48.652;9.194;2023-04-24T09:53:37;95560.44;;;14.61;48.11
69411;BME280;56604;48.652;9.194;2023-04-24T09:56:08;95542.03;;;14.70;43.73
69411;BME280;56604;48.652;9.194;2023-04-24T09:58:38;95548.50;;;15.05;43.41
69411;BME280;56604;48.652;9.194;2023-04-24T10:01:04;95560.78;;;15.28;43.34
69411;BME280;56604;48.652;9.194;2023-04-24T10:03:32;95555.59;;;15.23;43.93
69411;BME280;56604;48.652;9.194;2023-04-24T10:05:59;95568.50;;;14.18;44.41
69411;BME280;56604;48.652;9.194;2023-04-24T10:08:25;95573.78;;;14.18;46.27
69411;BME280;56604;48.652;9.194;2023-04-24T10:10:52;95576.03;;;13.73;46.59
69411;BME280;56604;48.652;9.194;2023-04-24T10:13:17;95587.34;;;13.55;47.72
69411;BME280;56604;48.652;9.194;2023-04-24T10:15:43;95576.19;;;14.52;46.51
69411;BME280;56604;48.652;9.194;2023-04-24T10:18:09;95569.59;;;15.10;44.82
69411;BME280;56604;48.652;9.194;2023-04-24T10:20:37;95571.47;;;15.23;43.29
69411;BME280;56604;48.652;9.194;2023-04-24T10:23:03;95576.69;;;15.28;44.46
69411;BME280;56604;48.652;9.194;2023-04-24T10:25:30;95575.31;;;15.17;44.43
69411;BME280;56604;48.652;9.194;2023-04-24T10:27:57;95574.00;;;15.42;45.01
69411;BME280;56604;48.652;9.194;2023-04-24T10:30:27;95584.22;;;15.49;43.91
69411;BME280;56604;48.652;9.194;2023-04-24T10:32:52;95587.31;;;15.79;43.13
69411;BME280;56604;48.652;9.194;2023-04-24T10:35:18;95586.94;;;15.85;44.15
69411;BME280;56604;48.652;9.194;2023-04-24T10:37:51;95593.72;;;15.36;44.43
69411;BME280;56604;48.652;9.194;2023-04-24T10:40:30;95608.94;;;15.30;43.78
69411;BME280;56604;48.652;9.194;2023-04-24T10:42:56;95596.56;;;15.12;45.19
69411;BME280;56604;48.652;9.194;2023-04-24T10:45:23;95607.44;;;14.83;45.52
69411;BME280;56604;48.652;9.194;2023-04-24T10:47:59;95615.09;;;14.52;45.61
69411;BME280;56604;48.652;9.194;2023-04-24T10:50:34;95615.66;;;14.11;46.59
69411;BME280;56604;48.652;9.194;2023-04-24T10:53:07;95617.84;;;14.42;47.38
69411;BME280;56604;48.652;9.194;2023-04-24T10:55:48;95614.25;;;14.51;46.39
69411;BME280;56604;48.652;9.194;2023-04-24T10:58:15;95620.56;;;14.55;46.91
69411;BME280;56604;48.652;9.194;2023-04-24T11:00:43;95625.78;;;14.42;47.74
69411;BME280;56604;48.652;9.194;2023-04-24T11:03:29;95631.56;;;14.06;48.25
69411;BME280;56604;48.652;9.194;2023-04-24T11:05:57;95631.97;;;13.56;48.50
69411;BME280;56604;48.652;9.194;2023-04-24T11:08:25;95632.19;;;13.60;49.13
69411;BME280;56604;48.652;9.194;2023-04-24T11:11:02;95638.94;;;13.47;48.77
69411;BME280;56604;48.652;9.194;2023-04-24T11:16:28;95635.28;;;13.86;48.78
69411;BME280;56604;48.652;9.194;2023-04-24T11:19:08;95639.59;;;14.20;48.22
69411;BME280;56604;48.652;9.194;2023-04-24T11:22:00;95637.59;;;14.11;47.64
69411;BME280;56604;48.652;9.194;2023-04-24T11:29:46;95651.03;;;14.85;47.53
69411;BME280;56604;48.652;9.194;2023-04-24T11:34:46;95648.56;;;13.38;49.17
69411;BME280;56604;48.652;9.194;2023-04-24T11:37:12;95649.47;;;13.23;49.84
69411;BME280;56604;48.652;9.194;2023-04-24T11:39:37;95656.72;;;13.12;50.09
69411;BME280;56604;48.652;9.194;2023-04-24T11:42:03;95664.84;;;13.45;50.51
69411;BME280;56604;48.652;9.194;2023-04-24T11:44:29;95672.53;;;13.41;51.48
69411;BME280;56604;48.652;9.194;2023-04-24T11:46:55;95673.72;;;13.25;51.04
69411;BME280;56604;48.652;9.194;2023-04-24T11:49:21;95681.91;;;13.28;51.25
69411;BME280;56604;48.652;9.194;2023-04-24T11:51:46;95691.13;;;13.31;51.75
69411;BME280;56604;48.652;9.194;2023-04-24T11:54:11;95686.88;;;13.35;51.80
69411;BME280;56604;48.652;9.194;2023-04-24T11:56:37;95685.69;;;13.46;50.43
69411;BME280;56604;48.652;9.194;2023-04-24T11:59:04;95671.50;;;13.85;50.84
69411;BME280;56604;48.652;9.194;2023-04-24T12:01:29;95679.50;;;13.56;49.57
69411;BME280;56604;48.652;9.194;2023-04-24T12:03:59;95671.75;;;13.41;50.02
69411;BME280;56604;48.652;9.194;2023-04-24T12:06:25;95663.75;;;13.46;49.73
69411;BME280;56604;48.652;9.194;2023-04-24T12:08:52;95674.09;;;13.42;50.01
69411;BME280;56604;48.652;9.194;2023-04-24T12:11:20;95674.09;;;13.42;50.42
69411;BME280;56604;48.652;9.194;2023-04-24T12:13:45;95681.06;;;13.33;51.34
69411;BME280;56604;48.652;9.194;2023-04-24T12:16:10;95671.97;;;13.44;50.62
69411;BME280;56604;48.652;9.194;2023-04-24T12:18:41;95690.41;;;13.49;50.49
69411;BME280;56604;48.652;9.194;2023-04-24T12:21:20;95694.47;;;13.08;50.76
69411;BME280;56604;48.652;9.194;2023-04-24T12:23:46;95692.63;;;12.79;51.76
69411;BME280;56604;48.652;9.194;2023-04-24T12:26:19;95696.44;;;12.63;52.38
69411;BME280;56604;48.652;9.194;2023-04-24T12:28:48;95702.25;;;12.59;51.96
69411;BME280;56604;48.652;9.194;2023-04-24T12:31:14;95703.56;;;12.62;52.62
69411;BME280;56604;48.652;9.194;2023-04-24T12:33:40;95698.75;;;13.03;52.63
69411;BME280;56604;48.652;9.194;2023-04-24T12:36:06;95701.81;;;13.45;50.22
69411;BME280;56604;48.652;9.194;2023-04-24T12:38:32;95702.81;;;13.20;50.81
69411;BME280;56604;48.652;9.194;2023-04-24T12:41:07;95705.81;;;13.08;51.04
69411;BME280;56604;48.652;9.194;2023-04-24T12:43:33;95702.25;;;13.23;51.75
69411;BME280;56604;48.652;9.194;2023-04-24T12:45:58;95708.66;;;13.17;52.35
69411;BME280;56604;48.652;9.194;2023-04-24T12:48:25;95704.34;;;13.26;51.39
69411;BME280;56604;48.652;9.194;2023-04-24T12:50:50;95707.13;;;13.11;52.55
69411;BME280;56604;48.652;9.194;2023-04-24T12:53:16;95697.47;;;13.30;51.87
69411;BME280;56604;48.652;9.194;2023-04-24T12:55:41;95699.13;;;13.21;51.03
69411;BME280;56604;48.652;9.194;2023-04-24T12:58:07;95699.81;;;13.32;52.14
69411;BME280;56604;48.652;9.194;2023-04-24T13:00:32;95691.53;;;13.43;51.91
69411;BME280;56604;48.652;9.194;2023-04-24T13:02:58;95687.41;;;12.69;53.86
69411;BME280;56604;48.652;9.194;2023-04-24T13:05:23;95696.53;;;13.16;54.25
69411;BME280;56604;48.652;9.194;2023-04-24T13:07:48;95695.69;;;12.91;54.88
69411;BME280;56604;48.652;9.194;2023-04-24T13:10:13;95693.06;;;12.86;55.60